createdAt,value
2023-04-18T00:02:10.431Z,9.25
2023-04-18T00:04:37.369Z,9.21
2023-04-18T00:07:07.724Z,9.15
2023-04-18T00:09:34.472Z,9.12
2023-04-18T00:12:02.100Z,9.07
2023-04-18T00:14:30.196Z,9.03
2023-04-18T00:16:57.374Z,9.03
2023-04-18T00:19:24.150Z,9.01
2023-04-18T00:21:53.216Z,8.94
2023-04-18T00:24:20.154Z,8.94
2023-04-18T00:26:46.950Z,8.94
2023-04-18T00:29:15.569Z,8.96
2023-04-18T00:31:51.249Z,8.92
2023-04-18T00:34:18.088Z,8.86
2023-04-18T00:36:44.786Z,8.83
2023-04-18T00:39:11.470Z,8.80
2023-04-18T00:41:38.125Z,8.77
2023-04-18T00:44:04.823Z,8.74
2023-04-18T00:46:31.540Z,8.73
2023-04-18T00:48:59.469Z,8.70
2023-04-18T00:51:26.481Z,8.66
2023-04-18T00:53:54.110Z,8.61
2023-04-18T00:56:23.815Z,8.54
2023-04-18T00:58:50.647Z,8.51
2023-04-18T01:01:18.208Z,8.42
2023-04-18T01:03:45.146Z,8.37
2023-04-18T01:06:11.966Z,8.35
2023-04-18T01:08:38.772Z,8.35
2023-04-18T01:11:05.521Z,8.36
2023-04-18T01:13:32.170Z,8.31
2023-04-18T01:16:01.110Z,8.28
2023-04-18T01:18:27.888Z,8.27
2023-04-18T01:20:57.147Z,8.24
2023-04-18T01:23:25.033Z,8.24
2023-04-18T01:26:02.126Z,8.21
2023-04-18T01:28:29.919Z,8.17
2023-04-18T01:30:56.561Z,8.13
2023-04-18T01:33:23.470Z,8.13
2023-04-18T01:35:53.349Z,8.11
2023-04-18T01:38:19.901Z,8.08
2023-04-18T01:40:47.093Z,8.07
2023-04-18T01:43:13.783Z,8.02
2023-04-18T01:45:40.517Z,8.00
2023-04-18T01:48:07.357Z,7.94
2023-04-18T01:50:34.063Z,7.94
2023-04-18T01:53:00.663Z,7.93
2023-04-18T01:55:27.472Z,7.88
2023-04-18T01:57:54.078Z,7.88
2023-04-18T02:00:21.382Z,7.89
2023-04-18T02:02:50.400Z,7.84
2023-04-18T02:05:26.237Z,7.82
2023-04-18T02:07:53.518Z,7.81
2023-04-18T02:10:20.398Z,7.79
2023-04-18T02:12:47.189Z,7.76
2023-04-18T02:15:13.939Z,7.76
2023-04-18T02:17:41.737Z,7.72
2023-04-18T02:20:09.477Z,7.66
2023-04-18T02:22:38.153Z,7.66
2023-04-18T02:25:05.120Z,7.64
2023-04-18T02:27:31.772Z,7.62
2023-04-18T02:29:58.327Z,7.58
2023-04-18T02:32:25.025Z,7.57
2023-04-18T02:34:51.691Z,7.58
2023-04-18T02:37:18.287Z,7.49
2023-04-18T02:39:44.890Z,7.47
2023-04-18T02:42:11.611Z,7.45
2023-04-18T02:44:38.332Z,7.45
2023-04-18T02:47:07.584Z,7.38
2023-04-18T02:49:36.964Z,7.38
2023-04-18T02:52:13.741Z,7.34
2023-04-18T02:54:40.573Z,7.33
2023-04-18T02:57:09.694Z,7.35
2023-04-18T02:59:54.710Z,7.26
2023-04-18T03:02:23.298Z,7.23
2023-04-18T03:04:50.039Z,7.23
2023-04-18T03:07:19.030Z,7.20
2023-04-18T03:09:45.773Z,7.20
2023-04-18T03:12:12.396Z,7.18
2023-04-18T03:14:39.158Z,7.17
2023-04-18T03:17:06.151Z,7.14
2023-04-18T03:19:32.793Z,7.14
2023-04-18T03:22:02.697Z,7.15
2023-04-18T03:24:29.303Z,7.14
2023-04-18T03:26:55.957Z,7.13
2023-04-18T03:29:22.673Z,7.13
2023-04-18T03:31:51.550Z,7.10
2023-04-18T03:34:18.198Z,7.10
2023-04-18T03:36:48.384Z,7.10
2023-04-18T03:39:17.599Z,7.06
2023-04-18T03:41:53.559Z,6.99
2023-04-18T03:44:26.285Z,7.00
2023-04-18T03:46:54.175Z,6.95
2023-04-18T03:49:20.840Z,6.90
2023-04-18T03:51:50.365Z,6.91
2023-04-18T03:54:17.433Z,6.83
2023-04-18T03:56:45.155Z,6.80
2023-04-18T03:59:12.214Z,6.74
2023-04-18T04:01:38.888Z,6.75
2023-04-18T04:04:05.940Z,6.73
2023-04-18T04:06:33.802Z,6.68
2023-04-18T04:09:00.953Z,6.70
2023-04-18T04:11:27.762Z,6.72
2023-04-18T04:13:54.441Z,6.77
2023-04-18T04:16:21.210Z,6.80
2023-04-18T04:18:49.105Z,6.76
2023-04-18T04:21:15.893Z,6.72
2023-04-18T04:23:43.026Z,6.78
2023-04-18T04:26:10.048Z,6.78
2023-04-18T04:28:37.742Z,6.83
2023-04-18T04:31:06.900Z,6.88
2023-04-18T04:33:33.583Z,6.88
2023-04-18T04:36:01.299Z,6.94
2023-04-18T04:38:31.044Z,6.96
2023-04-18T04:40:59.457Z,6.91
2023-04-18T04:43:28.635Z,6.93
2023-04-18T04:45:55.935Z,6.89
2023-04-18T04:48:31.175Z,6.92
2023-04-18T04:50:59.842Z,6.95
2023-04-18T04:53:32.543Z,6.99
2023-04-18T04:56:01.837Z,6.93
2023-04-18T04:58:31.475Z,6.89
2023-04-18T05:00:58.214Z,6.89
2023-04-18T05:03:24.990Z,6.94
2023-04-18T05:06:12.296Z,6.94
2023-04-18T05:08:38.926Z,6.94
2023-04-18T05:11:05.609Z,6.96
2023-04-18T05:13:32.405Z,6.96
2023-04-18T05:15:59.349Z,6.96
2023-04-18T05:18:26.003Z,6.98
2023-04-18T05:20:52.737Z,7.02
2023-04-18T05:23:19.389Z,7.01
2023-04-18T05:25:46.004Z,7.07
2023-04-18T05:28:12.466Z,7.07
2023-04-18T05:30:40.132Z,7.07
2023-04-18T05:33:06.785Z,7.10
2023-04-18T05:35:33.538Z,7.07
2023-04-18T05:38:00.151Z,7.07
2023-04-18T05:40:28.359Z,7.08
2023-04-18T05:42:56.069Z,7.12
2023-04-18T05:45:22.702Z,7.17
2023-04-18T05:47:49.324Z,7.22
2023-04-18T05:50:15.963Z,7.26
2023-04-18T05:52:42.602Z,7.31
2023-04-18T05:55:09.668Z,7.34
2023-04-18T05:57:36.399Z,7.33
2023-04-18T06:00:06.276Z,7.33
2023-04-18T06:02:32.994Z,7.37
2023-04-18T06:04:59.900Z,7.40
2023-04-18T06:07:26.622Z,7.45
2023-04-18T06:09:56.306Z,7.43
2023-04-18T06:12:22.803Z,7.46
2023-04-18T06:14:49.781Z,7.54
2023-04-18T06:17:16.385Z,7.57
2023-04-18T06:20:13.088Z,7.59
2023-04-18T06:29:56.043Z,7.77
2023-04-18T06:39:15.240Z,8.16
2023-04-18T06:41:41.850Z,8.27
2023-04-18T06:44:08.358Z,8.38
2023-04-18T06:46:34.962Z,8.45
2023-04-18T06:49:01.744Z,8.44
2023-04-18T06:51:29.053Z,8.53
2023-04-18T06:53:56.907Z,8.58
2023-04-18T06:56:23.585Z,8.60
2023-04-18T06:58:51.684Z,8.59
2023-04-18T07:01:18.762Z,8.64
2023-04-18T07:03:45.407Z,8.72
2023-04-18T07:06:12.036Z,8.78
2023-04-18T07:08:38.678Z,8.88
2023-04-18T07:11:06.603Z,8.87
2023-04-18T07:13:33.223Z,8.90
2023-04-18T07:15:59.816Z,8.92
2023-04-18T07:18:36.513Z,8.95
2023-04-18T07:21:07.751Z,8.97
2023-04-18T07:23:35.100Z,9.01
2023-04-18T07:26:02.937Z,9.03
2023-04-18T07:28:31.177Z,9.05
2023-04-18T07:30:58.461Z,9.08
2023-04-18T07:33:29.172Z,9.19
2023-04-18T07:35:55.776Z,9.30
2023-04-18T07:38:22.362Z,9.34
2023-04-18T07:40:59.801Z,9.33
2023-04-18T07:43:26.921Z,9.38
2023-04-18T07:45:54.275Z,9.48
2023-04-18T07:48:22.582Z,9.58
2023-04-18T07:50:49.415Z,9.68
2023-04-18T07:53:19.340Z,9.79
2023-04-18T07:55:46.650Z,9.87
2023-04-18T07:58:13.485Z,9.92
2023-04-18T08:00:42.349Z,9.96
2023-04-18T08:03:11.026Z,10.04
2023-04-18T08:05:39.964Z,10.14
2023-04-18T08:08:07.847Z,10.20
2023-04-18T08:10:34.899Z,10.23
2023-04-18T08:13:03.061Z,10.25
2023-04-18T08:15:32.346Z,10.33
2023-04-18T08:17:59.705Z,10.39
2023-04-18T08:20:26.396Z,10.44
2023-04-18T08:23:06.258Z,10.51
2023-04-18T08:25:36.376Z,10.53
2023-04-18T08:28:04.072Z,10.51
2023-04-18T08:30:30.928Z,10.61
2023-04-18T08:32:57.691Z,10.64
2023-04-18T09:15:32.266Z,11.66
2023-04-18T09:18:03.110Z,11.63
2023-04-18T09:20:35.237Z,11.58
2023-04-18T09:23:04.513Z,11.62
2023-04-18T09:25:42.020Z,11.77
2023-04-18T09:28:33.212Z,11.87
2023-04-18T09:31:11.967Z,12.03
2023-04-18T09:33:43.050Z,12.17
2023-04-18T09:36:19.076Z,12.30
2023-04-18T09:38:46.657Z,12.37
2023-04-18T09:41:15.896Z,12.35
2023-04-18T09:43:48.236Z,12.34
2023-04-18T09:46:15.405Z,12.40
2023-04-18T09:48:42.037Z,12.30
2023-04-18T09:51:11.392Z,12.22
2023-04-18T09:53:39.953Z,12.15
2023-04-18T09:56:10.704Z,12.15
2023-04-18T09:58:41.452Z,12.16
2023-04-18T10:01:08.553Z,12.14
2023-04-18T10:03:44.379Z,12.02
2023-04-18T10:06:11.837Z,11.98
2023-04-18T10:08:40.093Z,11.90
2023-04-18T10:11:06.642Z,12.00
2023-04-18T10:13:36.608Z,12.01
2023-04-18T10:16:05.378Z,12.11
2023-04-18T10:18:32.140Z,12.10
2023-04-18T10:21:04.686Z,12.08
2023-04-18T10:23:31.478Z,12.04
2023-04-18T10:25:59.350Z,12.11
2023-04-18T10:28:27.527Z,12.24
2023-04-18T10:31:03.594Z,12.40
2023-04-18T10:33:33.837Z,12.51
2023-04-18T10:36:01.820Z,12.53
2023-04-18T10:38:28.663Z,12.45
2023-04-18T10:41:22.813Z,12.49
2023-04-18T10:44:09.151Z,12.58
2023-04-18T10:46:37.421Z,12.71
2023-04-18T10:49:26.593Z,12.87
2023-04-18T10:51:55.997Z,12.92
2023-04-18T10:54:30.746Z,12.92
2023-04-18T10:57:01.686Z,13.12
2023-04-18T10:59:30.371Z,13.53
2023-04-18T11:02:05.100Z,13.89
2023-04-18T11:04:31.811Z,13.91
2023-04-18T11:06:58.722Z,14.01
2023-04-18T11:09:25.597Z,13.94
2023-04-18T11:12:09.406Z,13.91
2023-04-18T11:14:41.676Z,14.11
2023-04-18T11:17:24.622Z,14.04
2023-04-18T11:19:59.112Z,13.98
2023-04-18T11:22:25.914Z,13.94
2023-04-18T11:24:57.209Z,13.94
2023-04-18T11:27:25.840Z,13.86
2023-04-18T11:29:54.508Z,13.93
2023-04-18T11:32:24.625Z,14.00
2023-04-18T11:34:53.446Z,14.31
2023-04-18T11:37:20.629Z,14.63
2023-04-18T11:39:47.342Z,14.86
2023-04-18T11:42:13.884Z,14.95
2023-04-18T11:44:42.657Z,15.05
2023-04-18T11:47:24.317Z,15.08
2023-04-18T11:50:03.084Z,14.84
2023-04-18T11:52:31.674Z,14.63
2023-04-18T11:55:19.948Z,14.49
2023-04-18T11:57:52.043Z,14.35
2023-04-18T12:00:22.196Z,14.23
2023-04-18T12:02:51.178Z,14.15
2023-04-18T12:05:25.970Z,14.07
2023-04-18T12:07:55.897Z,14.00
2023-04-18T12:10:28.164Z,13.94
2023-04-18T12:12:56.558Z,13.90
2023-04-18T12:15:27.144Z,13.94
2023-04-18T12:18:00.689Z,13.99
2023-04-18T12:20:46.636Z,14.02
2023-04-18T12:23:40.273Z,13.98
2023-04-18T12:28:54.077Z,13.96
2023-04-18T12:31:22.503Z,13.91
2023-04-18T12:33:50.493Z,13.85
2023-04-18T12:36:38.555Z,13.81
2023-04-18T12:39:07.924Z,13.79
2023-04-18T12:41:34.771Z,13.77
2023-04-18T12:44:01.531Z,13.80
2023-04-18T12:46:31.710Z,13.86
2023-04-18T12:48:58.540Z,13.93
2023-04-18T12:57:28.641Z,13.82
2023-04-18T13:00:25.172Z,13.75
2023-04-18T13:03:13.789Z,13.78
2023-04-18T13:05:41.041Z,13.83
2023-04-18T13:08:16.844Z,13.77
2023-04-18T13:10:48.472Z,13.72
2023-04-18T13:18:11.556Z,13.67
2023-04-18T13:19:42.273Z,13.61
2023-04-18T13:22:09.715Z,13.61
2023-04-18T13:24:37.244Z,13.60
2023-04-18T13:27:10.632Z,13.59
2023-04-18T13:30:28.214Z,13.63
2023-04-18T13:32:44.350Z,13.72
2023-04-18T13:35:26.627Z,13.78
2023-04-18T13:40:38.888Z,13.91
2023-04-18T13:43:32.342Z,13.93
2023-04-18T13:46:01.544Z,13.99
2023-04-18T13:56:59.247Z,14.15
2023-04-18T14:05:41.074Z,14.83
2023-04-18T14:32:03.686Z,14.06
2023-04-18T14:39:05.153Z,14.15
2023-04-18T14:44:45.763Z,14.61
2023-04-18T14:47:47.028Z,14.72
2023-04-18T14:51:43.879Z,14.83
2023-04-18T15:35:17.560Z,14.86
2023-04-18T15:37:55.220Z,14.94
2023-04-18T15:41:08.058Z,14.95
2023-04-18T15:43:34.795Z,15.01
2023-04-18T15:47:16.655Z,15.06
2023-04-18T15:54:36.454Z,15.00
2023-04-18T16:05:31.114Z,14.88
2023-04-18T16:17:09.007Z,14.72
2023-04-18T16:23:05.464Z,14.74
2023-04-18T16:26:03.250Z,14.77
2023-04-18T16:39:48.210Z,14.57
2023-04-18T17:17:34.709Z,14.31
2023-04-18T17:27:51.906Z,14.11
2023-04-18T17:45:44.171Z,14.03
2023-04-18T17:48:10.832Z,13.96
2023-04-18T17:53:32.166Z,13.88
2023-04-18T17:56:00.905Z,13.85
2023-04-18T17:58:28.305Z,13.82
2023-04-18T18:01:09.122Z,13.79
2023-04-18T18:03:41.062Z,13.76
2023-04-18T18:06:08.060Z,13.72
2023-04-18T18:08:37.224Z,13.68
2023-04-18T18:14:16.565Z,13.60
2023-04-18T18:20:02.433Z,13.47
2023-04-18T18:22:32.266Z,13.42
2023-04-18T18:24:59.093Z,13.35
2023-04-18T18:27:50.930Z,13.30
2023-04-18T18:30:15.516Z,13.23
2023-04-18T18:32:42.241Z,13.17
2023-04-18T18:35:11.827Z,13.07
2023-04-18T18:37:51.018Z,13.01
2023-04-18T18:40:18.685Z,12.95
2023-04-18T18:42:56.935Z,12.91
2023-04-18T18:45:23.805Z,12.86
2023-04-18T18:47:53.525Z,12.82
2023-04-18T18:50:20.291Z,12.77
2023-04-18T18:52:47.123Z,12.70
2023-04-18T18:55:13.830Z,12.65
2023-04-18T18:57:40.566Z,12.61
2023-04-18T19:00:12.270Z,12.57
2023-04-18T19:02:39.812Z,12.56
2023-04-18T19:05:07.163Z,12.53
2023-04-18T19:07:33.785Z,12.49
2023-04-18T19:10:01.664Z,12.45
2023-04-18T19:12:29.155Z,12.40
2023-04-18T19:14:55.851Z,12.35
2023-04-18T19:17:24.865Z,12.34
2023-04-18T19:20:02.485Z,12.32
2023-04-18T19:22:29.999Z,12.30
